sensor_id;sensor_type;location;lat;lon;timestamp;temperature;humidity
67799;SHT30;54596;43.216;27.904;2023-08-08T00:01:23;21.77;67.14
67799;SHT30;54596;43.216;27.904;2023-08-08T00:03:48;21.77;67.16
67799;SHT30;54596;43.216;27.904;2023-08-08T00:06:14;21.81;66.70
67799;SHT30;54596;43.216;27.904;2023-08-08T00:08:39;21.84;66.33
67799;SHT30;54596;43.216;27.904;2023-08-08T00:11:05;21.81;66.60
67799;SHT30;54596;43.216;27.904;2023-08-08T00:13:31;21.67;67.32
67799;SHT30;54596;43.216;27.904;2023-08-08T00:15:57;21.73;67.56
67799;SHT30;54596;43.216;27.904;2023-08-08T00:18:22;21.69;67.89
67799;SHT30;54596;43.216;27.904;2023-08-08T00:20:48;21.64;68.69
67799;SHT30;54596;43.216;27.904;2023-08-08T00:23:13;21.59;68.26
67799;SHT30;54596;43.216;27.904;2023-08-08T00:25:38;21.57;67.01
67799;SHT30;54596;43.216;27.904;2023-08-08T00:28:04;21.61;67.07
67799;SHT30;54596;43.216;27.904;2023-08-08T00:30:30;21.62;67.39
67799;SHT30;54596;43.216;27.904;2023-08-08T00:32:55;21.59;67.26
67799;SHT30;54596;43.216;27.904;2023-08-08T00:35:21;21.57;67.02
67799;SHT30;54596;43.216;27.904;2023-08-08T00:37:47;21.59;67.21
67799;SHT30;54596;43.216;27.904;2023-08-08T00:40:13;21.59;66.66
67799;SHT30;54596;43.216;27.904;2023-08-08T00:42:38;21.59;66.67
67799;SHT30;54596;43.216;27.904;2023-08-08T00:45:04;21.61;66.35
67799;SHT30;54596;43.216;27.904;2023-08-08T00:47:33;21.62;66.19
67799;SHT30;54596;43.216;27.904;2023-08-08T00:50:00;21.64;65.61
67799;SHT30;54596;43.216;27.904;2023-08-08T00:52:26;21.65;65.60
67799;SHT30;54596;43.216;27.904;2023-08-08T00:54:52;21.67;65.05
67799;SHT30;54596;43.216;27.904;2023-08-08T00:57:18;21.69;65.17
67799;SHT30;54596;43.216;27.904;2023-08-08T00:59:43;21.68;65.05
67799;SHT30;54596;43.216;27.904;2023-08-08T01:02:09;21.69;64.63
67799;SHT30;54596;43.216;27.904;2023-08-08T01:04:34;21.64;65.07
67799;SHT30;54596;43.216;27.904;2023-08-08T01:07:15;21.64;64.78
67799;SHT30;54596;43.216;27.904;2023-08-08T01:12:32;21.55;65.07
67799;SHT30;54596;43.216;27.904;2023-08-08T01:14:58;21.51;64.69
67799;SHT30;54596;43.216;27.904;2023-08-08T01:17:25;21.53;64.64
67799;SHT30;54596;43.216;27.904;2023-08-08T01:19:50;21.55;64.57
67799;SHT30;54596;43.216;27.904;2023-08-08T01:22:23;21.59;64.23
67799;SHT30;54596;43.216;27.904;2023-08-08T01:24:51;21.61;64.31
67799;SHT30;54596;43.216;27.904;2023-08-08T01:27:17;21.62;64.34
67799;SHT30;54596;43.216;27.904;2023-08-08T01:29:42;21.64;64.42
67799;SHT30;54596;43.216;27.904;2023-08-08T01:32:08;21.65;64.72
67799;SHT30;54596;43.216;27.904;2023-08-08T01:34:34;21.61;64.78
67799;SHT30;54596;43.216;27.904;2023-08-08T01:37:14;21.62;64.87
67799;SHT30;54596;43.216;27.904;2023-08-08T01:39:43;21.61;65.19
67799;SHT30;54596;43.216;27.904;2023-08-08T01:42:10;21.57;65.44
67799;SHT30;54596;43.216;27.904;2023-08-08T01:44:37;21.55;65.57
67799;SHT30;54596;43.216;27.904;2023-08-08T01:47:05;21.53;65.82
67799;SHT30;54596;43.216;27.904;2023-08-08T01:49:31;21.51;66.01
67799;SHT30;54596;43.216;27.904;2023-08-08T01:51:56;21.50;66.18
67799;SHT30;54596;43.216;27.904;2023-08-08T01:54:22;21.50;66.32
67799;SHT30;54596;43.216;27.904;2023-08-08T01:56:47;21.53;66.49
67799;SHT30;54596;43.216;27.904;2023-08-08T01:59:13;21.43;66.91
67799;SHT30;54596;43.216;27.904;2023-08-08T02:01:38;21.44;66.96
67799;SHT30;54596;43.216;27.904;2023-08-08T02:04:04;21.46;67.16
67799;SHT30;54596;43.216;27.904;2023-08-08T02:06:29;21.44;67.23
67799;SHT30;54596;43.216;27.904;2023-08-08T02:08:55;21.47;67.39
67799;SHT30;54596;43.216;27.904;2023-08-08T02:11:21;21.44;67.49
67799;SHT30;54596;43.216;27.904;2023-08-08T02:13:47;21.40;67.71
67799;SHT30;54596;43.216;27.904;2023-08-08T02:16:12;21.39;67.75
67799;SHT30;54596;43.216;27.904;2023-08-08T02:18:38;21.43;67.79
67799;SHT30;54596;43.216;27.904;2023-08-08T02:21:07;21.44;67.85
67799;SHT30;54596;43.216;27.904;2023-08-08T02:23:33;21.43;67.99
67799;SHT30;54596;43.216;27.904;2023-08-08T02:25:58;21.31;68.20
67799;SHT30;54596;43.216;27.904;2023-08-08T02:28:24;21.36;68.33
67799;SHT30;54596;43.216;27.904;2023-08-08T02:30:49;21.34;68.49
67799;SHT30;54596;43.216;27.904;2023-08-08T02:33:15;21.36;68.52
67799;SHT30;54596;43.216;27.904;2023-08-08T02:35:40;21.30;68.81
67799;SHT30;54596;43.216;27.904;2023-08-08T02:38:06;21.24;69.00
67799;SHT30;54596;43.216;27.904;2023-08-08T02:40:31;21.23;69.32
67799;SHT30;54596;43.216;27.904;2023-08-08T02:42:58;21.16;69.59
67799;SHT30;54596;43.216;27.904;2023-08-08T02:45:24;21.10;69.84
67799;SHT30;54596;43.216;27.904;2023-08-08T02:47:49;21.12;69.88
67799;SHT30;54596;43.216;27.904;2023-08-08T02:50:15;21.10;70.06
67799;SHT30;54596;43.216;27.904;2023-08-08T02:52:40;21.09;70.14
67799;SHT30;54596;43.216;27.904;2023-08-08T02:55:07;21.05;70.32
67799;SHT30;54596;43.216;27.904;2023-08-08T02:57:32;21.07;70.34
67799;SHT30;54596;43.216;27.904;2023-08-08T02:59:58;21.09;70.46
67799;SHT30;54596;43.216;27.904;2023-08-08T03:02:23;21.13;70.53
67799;SHT30;54596;43.216;27.904;2023-08-08T03:04:49;21.07;70.68
67799;SHT30;54596;43.216;27.904;2023-08-08T03:07:15;21.06;70.70
67799;SHT30;54596;43.216;27.904;2023-08-08T03:09:40;21.06;70.83
67799;SHT30;54596;43.216;27.904;2023-08-08T03:12:06;21.10;70.79
67799;SHT30;54596;43.216;27.904;2023-08-08T03:14:32;21.18;70.83
67799;SHT30;54596;43.216;27.904;2023-08-08T03:16:58;21.07;71.05
67799;SHT30;54596;43.216;27.904;2023-08-08T03:19:24;21.12;71.15
67799;SHT30;54596;43.216;27.904;2023-08-08T03:21:50;21.07;71.31
67799;SHT30;54596;43.216;27.904;2023-08-08T03:24:15;21.03;71.36
67799;SHT30;54596;43.216;27.904;2023-08-08T03:26:41;21.13;71.36
67799;SHT30;54596;43.216;27.904;2023-08-08T03:29:06;21.16;71.43
67799;SHT30;54596;43.216;27.904;2023-08-08T03:31:35;21.10;71.62
67799;SHT30;54596;43.216;27.904;2023-08-08T03:34:00;21.19;71.60
67799;SHT30;54596;43.216;27.904;2023-08-08T03:36:26;21.24;71.49
67799;SHT30;54596;43.216;27.904;2023-08-08T03:38:51;21.20;71.66
67799;SHT30;54596;43.216;27.904;2023-08-08T03:41:17;21.27;71.62
67799;SHT30;54596;43.216;27.904;2023-08-08T03:43:42;21.31;71.54
67799;SHT30;54596;43.216;27.904;2023-08-08T03:46:08;21.34;71.49
67799;SHT30;54596;43.216;27.904;2023-08-08T03:48:34;21.34;71.71
67799;SHT30;54596;43.216;27.904;2023-08-08T03:50:59;21.36;71.76
67799;SHT30;54596;43.216;27.904;2023-08-08T03:53:25;21.33;71.89
67799;SHT30;54596;43.216;27.904;2023-08-08T03:55:50;21.39;71.85
67799;SHT30;54596;43.216;27.904;2023-08-08T03:58:16;21.29;71.87
67799;SHT30;54596;43.216;27.904;2023-08-08T04:00:42;21.34;71.83
67799;SHT30;54596;43.216;27.904;2023-08-08T04:03:13;21.44;71.75
67799;SHT30;54596;43.216;27.904;2023-08-08T04:05:40;21.47;71.64
67799;SHT30;54596;43.216;27.904;2023-08-08T04:08:06;21.39;71.87
67799;SHT30;54596;43.216;27.904;2023-08-08T04:10:31;21.39;71.89
67799;SHT30;54596;43.216;27.904;2023-08-08T04:12:57;21.37;72.01
67799;SHT30;54596;43.216;27.904;2023-08-08T04:15:22;21.44;71.98
67799;SHT30;54596;43.216;27.904;2023-08-08T04:17:48;21.41;72.04
67799;SHT30;54596;43.216;27.904;2023-08-08T04:20:13;21.44;72.04
67799;SHT30;54596;43.216;27.904;2023-08-08T04:22:39;21.46;71.86
67799;SHT30;54596;43.216;27.904;2023-08-08T04:25:05;21.46;72.13
67799;SHT30;54596;43.216;27.904;2023-08-08T04:27:31;21.50;72.07
67799;SHT30;54596;43.216;27.904;2023-08-08T04:29:57;21.57;72.06
67799;SHT30;54596;43.216;27.904;2023-08-08T04:32:22;21.50;72.14
67799;SHT30;54596;43.216;27.904;2023-08-08T04:34:48;21.59;72.11
67799;SHT30;54596;43.216;27.904;2023-08-08T04:37:13;21.67;71.83
67799;SHT30;54596;43.216;27.904;2023-08-08T04:39:39;21.73;71.87
67799;SHT30;54596;43.216;27.904;2023-08-08T04:42:04;21.92;71.50
67799;SHT30;54596;43.216;27.904;2023-08-08T04:44:30;22.09;71.24
67799;SHT30;54596;43.216;27.904;2023-08-08T04:46:55;22.16;71.05
67799;SHT30;54596;43.216;27.904;2023-08-08T04:49:21;22.02;71.46
67799;SHT30;54596;43.216;27.904;2023-08-08T04:51:46;22.08;71.50
67799;SHT30;54596;43.216;27.904;2023-08-08T04:54:12;22.16;71.39
67799;SHT30;54596;43.216;27.904;2023-08-08T04:56:37;21.95;71.70
67799;SHT30;54596;43.216;27.904;2023-08-08T04:59:03;22.03;71.76
67799;SHT30;54596;43.216;27.904;2023-08-08T05:01:28;21.99;71.97
67799;SHT30;54596;43.216;27.904;2023-08-08T05:03:54;21.82;72.46
67799;SHT30;54596;43.216;27.904;2023-08-08T05:06:19;21.84;72.31
67799;SHT30;54596;43.216;27.904;2023-08-08T05:08:45;21.98;72.20
67799;SHT30;54596;43.216;27.904;2023-08-08T05:11:10;22.03;72.11
67799;SHT30;54596;43.216;27.904;2023-08-08T05:13:36;22.20;71.76
67799;SHT30;54596;43.216;27.904;2023-08-08T05:16:01;22.16;71.89
67799;SHT30;54596;43.216;27.904;2023-08-08T05:18:27;22.41;71.35
67799;SHT30;54596;43.216;27.904;2023-08-08T05:20:52;22.53;71.17
67799;SHT30;54596;43.216;27.904;2023-08-08T05:23:18;22.60;70.93
67799;SHT30;54596;43.216;27.904;2023-08-08T05:25:43;22.68;70.75
67799;SHT30;54596;43.216;27.904;2023-08-08T05:28:09;22.64;70.85
67799;SHT30;54596;43.216;27.904;2023-08-08T05:30:35;22.72;70.62
67799;SHT30;54596;43.216;27.904;2023-08-08T05:33:00;22.76;70.71
67799;SHT30;54596;43.216;27.904;2023-08-08T05:35:26;22.79;70.80
67799;SHT30;54596;43.216;27.904;2023-08-08T05:37:51;22.75;70.84
67799;SHT30;54596;43.216;27.904;2023-08-08T05:40:17;22.51;71.50
67799;SHT30;54596;43.216;27.904;2023-08-08T05:42:42;22.26;72.05
67799;SHT30;54596;43.216;27.904;2023-08-08T05:45:08;22.48;71.88
67799;SHT30;54596;43.216;27.904;2023-08-08T05:47:33;22.84;71.10
67799;SHT30;54596;43.216;27.904;2023-08-08T05:49:59;23.17;70.31
67799;SHT30;54596;43.216;27.904;2023-08-08T05:52:24;23.05;70.53
67799;SHT30;54596;43.216;27.904;2023-08-08T05:54:50;22.96;70.66
67799;SHT30;54596;43.216;27.904;2023-08-08T05:57:15;22.99;70.81
67799;SHT30;54596;43.216;27.904;2023-08-08T05:59:41;22.98;70.56
67799;SHT30;54596;43.216;27.904;2023-08-08T06:02:07;23.50;69.55
67799;SHT30;54596;43.216;27.904;2023-08-08T06:04:32;22.82;70.68
67799;SHT30;54596;43.216;27.904;2023-08-08T06:06:58;23.07;70.41
67799;SHT30;54596;43.216;27.904;2023-08-08T06:09:24;23.03;70.16
67799;SHT30;54596;43.216;27.904;2023-08-08T06:11:50;22.99;70.31
67799;SHT30;54596;43.216;27.904;2023-08-08T06:14:15;23.09;70.11
67799;SHT30;54596;43.216;27.904;2023-08-08T06:16:42;23.07;70.10
67799;SHT30;54596;43.216;27.904;2023-08-08T06:19:07;24.43;67.75
67799;SHT30;54596;43.216;27.904;2023-08-08T06:21:33;26.65;62.22
67799;SHT30;54596;43.216;27.904;2023-08-08T06:23:59;26.47;62.32
67799;SHT30;54596;43.216;27.904;2023-08-08T06:26:25;27.07;61.38
67799;SHT30;54596;43.216;27.904;2023-08-08T06:28:50;26.72;61.13
67799;SHT30;54596;43.216;27.904;2023-08-08T06:31:19;25.64;63.32
67799;SHT30;54596;43.216;27.904;2023-08-08T06:33:44;25.37;64.10
67799;SHT30;54596;43.216;27.904;2023-08-08T06:36:10;26.79;61.68
67799;SHT30;54596;43.216;27.904;2023-08-08T06:38:35;26.51;61.55
67799;SHT30;54596;43.216;27.904;2023-08-08T06:41:02;25.13;63.71
67799;SHT30;54596;43.216;27.904;2023-08-08T06:43:28;25.50;63.16
67799;SHT30;54596;43.216;27.904;2023-08-08T06:45:53;25.35;63.22
67799;SHT30;54596;43.216;27.904;2023-08-08T06:48:19;25.24;62.89
67799;SHT30;54596;43.216;27.904;2023-08-08T06:50:44;24.76;63.99
67799;SHT30;54596;43.216;27.904;2023-08-08T06:53:10;24.67;64.38
67799;SHT30;54596;43.216;27.904;2023-08-08T06:55:36;24.64;64.48
67799;SHT30;54596;43.216;27.904;2023-08-08T06:58:01;24.50;64.83
67799;SHT30;54596;43.216;27.904;2023-08-08T07:00:27;24.14;65.24
67799;SHT30;54596;43.216;27.904;2023-08-08T07:02:53;24.05;65.58
67799;SHT30;54596;43.216;27.904;2023-08-08T07:05:19;24.06;65.76
67799;SHT30;54596;43.216;27.904;2023-08-08T07:07:44;24.23;65.83
67799;SHT30;54596;43.216;27.904;2023-08-08T07:10:10;24.30;65.21
67799;SHT30;54596;43.216;27.904;2023-08-08T07:12:37;24.50;64.87
67799;SHT30;54596;43.216;27.904;2023-08-08T07:15:03;25.35;63.40
67799;SHT30;54596;43.216;27.904;2023-08-08T07:17:29;26.49;60.92
67799;SHT30;54596;43.216;27.904;2023-08-08T07:19:54;26.51;60.65
67799;SHT30;54596;43.216;27.904;2023-08-08T07:22:20;26.51;60.23
67799;SHT30;54596;43.216;27.904;2023-08-08T07:24:45;25.93;60.93
67799;SHT30;54596;43.216;27.904;2023-08-08T07:27:11;26.02;61.08
67799;SHT30;54596;43.216;27.904;2023-08-08T07:29:36;26.24;60.46
67799;SHT30;54596;43.216;27.904;2023-08-08T07:32:05;26.57;59.65
67799;SHT30;54596;43.216;27.904;2023-08-08T07:34:31;26.45;59.30
67799;SHT30;54596;43.216;27.904;2023-08-08T07:36:58;26.02;60.03
67799;SHT30;54596;43.216;27.904;2023-08-08T07:39:23;25.89;60.56
67799;SHT30;54596;43.216;27.904;2023-08-08T07:41:49;25.62;61.09
67799;SHT30;54596;43.216;27.904;2023-08-08T07:44:15;24.99;61.41
67799;SHT30;54596;43.216;27.904;2023-08-08T07:46:41;24.88;61.85
67799;SHT30;54596;43.216;27.904;2023-08-08T07:49:06;24.79;61.62
67799;SHT30;54596;43.216;27.904;2023-08-08T07:51:32;24.62;61.95
67799;SHT30;54596;43.216;27.904;2023-08-08T07:53:58;24.72;61.84
67799;SHT30;54596;43.216;27.904;2023-08-08T07:56:24;24.85;61.86
67799;SHT30;54596;43.216;27.904;2023-08-08T07:58:49;25.00;61.65
67799;SHT30;54596;43.216;27.904;2023-08-08T08:01:15;26.67;58.28
67799;SHT30;54596;43.216;27.904;2023-08-08T08:03:40;26.47;58.67
67799;SHT30;54596;43.216;27.904;2023-08-08T08:06:07;26.47;58.63
67799;SHT30;54596;43.216;27.904;2023-08-08T08:08:32;26.23;58.82
67799;SHT30;54596;43.216;27.904;2023-08-08T08:10:58;25.85;58.91
67799;SHT30;54596;43.216;27.904;2023-08-08T08:13:23;26.49;58.04
67799;SHT30;54596;43.216;27.904;2023-08-08T08:15:49;27.52;56.52
67799;SHT30;54596;43.216;27.904;2023-08-08T08:18:14;27.34;57.00
67799;SHT30;54596;43.216;27.904;2023-08-08T08:20:43;26.83;57.27
67799;SHT30;54596;43.216;27.904;2023-08-08T08:23:09;26.88;57.20
67799;SHT30;54596;43.216;27.904;2023-08-08T08:25:35;27.07;56.76
67799;SHT30;54596;43.216;27.904;2023-08-08T08:28:00;27.07;56.87
67799;SHT30;54596;43.216;27.904;2023-08-08T08:30:26;27.09;57.28
67799;SHT30;54596;43.216;27.904;2023-08-08T08:32:52;27.06;57.77
67799;SHT30;54596;43.216;27.904;2023-08-08T08:35:18;26.59;58.62
67799;SHT30;54596;43.216;27.904;2023-08-08T08:37:44;26.49;58.88
67799;SHT30;54596;43.216;27.904;2023-08-08T08:40:10;26.48;59.15
67799;SHT30;54596;43.216;27.904;2023-08-08T08:42:37;26.16;60.24
67799;SHT30;54596;43.216;27.904;2023-08-08T08:45:04;26.17;60.21
67799;SHT30;54596;43.216;27.904;2023-08-08T08:47:31;25.64;61.12
67799;SHT30;54596;43.216;27.904;2023-08-08T08:49:57;25.89;60.94
67799;SHT30;54596;43.216;27.904;2023-08-08T08:52:23;25.76;60.80
67799;SHT30;54596;43.216;27.904;2023-08-08T08:54:51;25.81;61.28
67799;SHT30;54596;43.216;27.904;2023-08-08T08:57:17;25.75;61.36
67799;SHT30;54596;43.216;27.904;2023-08-08T08:59:42;25.74;61.39
67799;SHT30;54596;43.216;27.904;2023-08-08T09:02:08;25.62;61.36
67799;SHT30;54596;43.216;27.904;2023-08-08T09:04:36;25.40;61.80
67799;SHT30;54596;43.216;27.904;2023-08-08T09:07:05;25.09;62.30
67799;SHT30;54596;43.216;27.904;2023-08-08T09:09:32;24.75;62.72
67799;SHT30;54596;43.216;27.904;2023-08-08T09:11:57;24.67;63.23
67799;SHT30;54596;43.216;27.904;2023-08-08T09:14:24;24.72;63.04
67799;SHT30;54596;43.216;27.904;2023-08-08T09:16:51;24.81;62.75
67799;SHT30;54596;43.216;27.904;2023-08-08T09:19:19;24.60;63.15
67799;SHT30;54596;43.216;27.904;2023-08-08T09:21:45;24.24;64.06
67799;SHT30;54596;43.216;27.904;2023-08-08T09:24:10;24.13;64.55
67799;SHT30;54596;43.216;27.904;2023-08-08T09:26:36;24.13;64.64
67799;SHT30;54596;43.216;27.904;2023-08-08T09:29:03;24.02;65.31
67799;SHT30;54596;43.216;27.904;2023-08-08T09:31:29;23.95;65.67
67799;SHT30;54596;43.216;27.904;2023-08-08T09:33:59;23.86;65.57
67799;SHT30;54596;43.216;27.904;2023-08-08T09:36:25;24.02;65.34
67799;SHT30;54596;43.216;27.904;2023-08-08T09:38:52;23.82;65.58
67799;SHT30;54596;43.216;27.904;2023-08-08T09:41:19;23.82;65.28
67799;SHT30;54596;43.216;27.904;2023-08-08T09:43:45;23.76;65.56
67799;SHT30;54596;43.216;27.904;2023-08-08T09:46:11;23.82;65.64
67799;SHT30;54596;43.216;27.904;2023-08-08T09:48:39;23.76;65.87
67799;SHT30;54596;43.216;27.904;2023-08-08T09:51:05;23.71;66.22
67799;SHT30;54596;43.216;27.904;2023-08-08T09:53:31;23.54;66.05
67799;SHT30;54596;43.216;27.904;2023-08-08T09:55:57;23.57;66.29
67799;SHT30;54596;43.216;27.904;2023-08-08T09:58:23;23.46;66.38
67799;SHT30;54596;43.216;27.904;2023-08-08T10:00:49;23.31;66.87
67799;SHT30;54596;43.216;27.904;2023-08-08T10:03:19;23.28;66.72
67799;SHT30;54596;43.216;27.904;2023-08-08T10:05:45;23.20;66.83
67799;SHT30;54596;43.216;27.904;2023-08-08T10:08:11;23.19;66.82
67799;SHT30;54596;43.216;27.904;2023-08-08T10:10:37;23.20;66.71
67799;SHT30;54596;43.216;27.904;2023-08-08T10:13:03;23.23;66.55
67799;SHT30;54596;43.216;27.904;2023-08-08T10:15:30;23.03;67.40
67799;SHT30;54596;43.216;27.904;2023-08-08T10:17:57;23.02;67.33
67799;SHT30;54596;43.216;27.904;2023-08-08T10:20:24;23.03;67.38
67799;SHT30;54596;43.216;27.904;2023-08-08T10:22:52;23.05;67.37
67799;SHT30;54596;43.216;27.904;2023-08-08T10:25:28;22.96;67.86
67799;SHT30;54596;43.216;27.904;2023-08-08T10:28:09;22.91;67.78
67799;SHT30;54596;43.216;27.904;2023-08-08T10:30:52;22.85;67.74
67799;SHT30;54596;43.216;27.904;2023-08-08T10:33:23;22.78;67.77
67799;SHT30;54596;43.216;27.904;2023-08-08T10:36:03;22.79;67.65
67799;SHT30;54596;43.216;27.904;2023-08-08T10:38:43;22.78;67.80
67799;SHT30;54596;43.216;27.904;2023-08-08T10:41:17;22.67;67.99
67799;SHT30;54596;43.216;27.904;2023-08-08T10:44:01;22.54;68.62
67799;SHT30;54596;43.216;27.904;2023-08-08T10:46:28;22.36;69.10
67799;SHT30;54596;43.216;27.904;2023-08-08T10:49:01;22.27;69.31
67799;SHT30;54596;43.216;27.904;2023-08-08T10:51:40;22.13;69.47
67799;SHT30;54596;43.216;27.904;2023-08-08T10:54:14;22.02;69.96
67799;SHT30;54596;43.216;27.904;2023-08-08T10:56:40;21.86;70.26
67799;SHT30;54596;43.216;27.904;2023-08-08T10:59:18;21.82;70.52
67799;SHT30;54596;43.216;27.904;2023-08-08T11:01:48;21.62;71.08
67799;SHT30;54596;43.216;27.904;2023-08-08T11:04:16;21.62;71.13
67799;SHT30;54596;43.216;27.904;2023-08-08T11:06:41;21.62;71.33
67799;SHT30;54596;43.216;27.904;2023-08-08T11:09:07;21.55;71.33
67799;SHT30;54596;43.216;27.904;2023-08-08T11:11:40;21.55;71.91
67799;SHT30;54596;43.216;27.904;2023-08-08T11:14:14;21.59;72.02
67799;SHT30;54596;43.216;27.904;2023-08-08T11:16:40;21.51;73.95
67799;SHT30;54596;43.216;27.904;2023-08-08T11:19:06;21.51;74.55
67799;SHT30;54596;43.216;27.904;2023-08-08T11:21:36;21.54;75.48
67799;SHT30;54596;43.216;27.904;2023-08-08T11:24:03;21.50;74.20
67799;SHT30;54596;43.216;27.904;2023-08-08T11:26:29;21.44;74.37
67799;SHT30;54596;43.216;27.904;2023-08-08T11:28:58;21.47;74.83
67799;SHT30;54596;43.216;27.904;2023-08-08T11:31:24;21.22;75.73
67799;SHT30;54596;43.216;27.904;2023-08-08T11:33:50;21.33;75.58
67799;SHT30;54596;43.216;27.904;2023-08-08T11:36:16;21.51;75.10
67799;SHT30;54596;43.216;27.904;2023-08-08T11:38:42;21.59;75.46
67799;SHT30;54596;43.216;27.904;2023-08-08T11:41:10;21.53;75.39
67799;SHT30;54596;43.216;27.904;2023-08-08T11:43:37;21.61;75.59
67799;SHT30;54596;43.216;27.904;2023-08-08T11:46:25;21.64;75.98
67799;SHT30;54596;43.216;27.904;2023-08-08T11:48:51;21.89;75.50
67799;SHT30;54596;43.216;27.904;2023-08-08T11:51:16;22.06;75.36
67799;SHT30;54596;43.216;27.904;2023-08-08T11:53:50;22.34;74.65
67799;SHT30;54596;43.216;27.904;2023-08-08T11:56:17;22.82;73.92
67799;SHT30;54596;43.216;27.904;2023-08-08T11:58:43;23.15;73.20
67799;SHT30;54596;43.216;27.904;2023-08-08T12:01:09;23.40;72.95
67799;SHT30;54596;43.216;27.904;2023-08-08T12:03:35;23.51;72.87
67799;SHT30;54596;43.216;27.904;2023-08-08T12:06:14;23.26;71.36
67799;SHT30;54596;43.216;27.904;2023-08-08T12:08:41;23.43;71.21
67799;SHT30;54596;43.216;27.904;2023-08-08T12:11:08;23.50;70.08
67799;SHT30;54596;43.216;27.904;2023-08-08T12:13:37;23.64;69.38
67799;SHT30;54596;43.216;27.904;2023-08-08T12:16:03;23.74;69.45
67799;SHT30;54596;43.216;27.904;2023-08-08T12:18:29;23.84;67.36
67799;SHT30;54596;43.216;27.904;2023-08-08T12:20:55;23.89;66.30
67799;SHT30;54596;43.216;27.904;2023-08-08T12:23:21;23.95;65.77
67799;SHT30;54596;43.216;27.904;2023-08-08T12:25:47;24.02;65.64
67799;SHT30;54596;43.216;27.904;2023-08-08T12:28:13;23.99;64.51
67799;SHT30;54596;43.216;27.904;2023-08-08T12:30:38;24.05;64.92
67799;SHT30;54596;43.216;27.904;2023-08-08T12:33:04;24.09;63.58
67799;SHT30;54596;43.216;27.904;2023-08-08T12:35:32;24.12;61.70
67799;SHT30;54596;43.216;27.904;2023-08-08T12:37:57;24.10;62.32
67799;SHT30;54596;43.216;27.904;2023-08-08T12:40:22;24.01;63.08
67799;SHT30;54596;43.216;27.904;2023-08-08T12:42:50;24.03;63.79
67799;SHT30;54596;43.216;27.904;2023-08-08T12:45:16;24.05;63.87
67799;SHT30;54596;43.216;27.904;2023-08-08T12:47:43;24.01;63.49
67799;SHT30;54596;43.216;27.904;2023-08-08T12:50:09;24.03;63.42
67799;SHT30;54596;43.216;27.904;2023-08-08T12:52:35;24.13;62.91
67799;SHT30;54596;43.216;27.904;2023-08-08T12:55:01;24.21;62.03
67799;SHT30;54596;43.216;27.904;2023-08-08T12:57:28;24.29;61.51
67799;SHT30;54596;43.216;27.904;2023-08-08T12:59:53;24.37;60.49
67799;SHT30;54596;43.216;27.904;2023-08-08T13:02:19;24.27;59.53
67799;SHT30;54596;43.216;27.904;2023-08-08T13:04:44;24.21;59.56
67799;SHT30;54596;43.216;27.904;2023-08-08T13:07:10;24.13;59.57
67799;SHT30;54596;43.216;27.904;2023-08-08T13:09:35;24.19;60.14
67799;SHT30;54596;43.216;27.904;2023-08-08T13:12:01;24.23;59.95
67799;SHT30;54596;43.216;27.904;2023-08-08T13:14:27;24.24;59.60
67799;SHT30;54596;43.216;27.904;2023-08-08T13:16:52;24.30;59.92
67799;SHT30;54596;43.216;27.904;2023-08-08T13:19:19;24.36;59.89
67799;SHT30;54596;43.216;27.904;2023-08-08T13:21:46;24.45;59.96
67799;SHT30;54596;43.216;27.904;2023-08-08T13:24:12;24.57;59.27
67799;SHT30;54596;43.216;27.904;2023-08-08T13:26:39;24.68;59.26
67799;SHT30;54596;43.216;27.904;2023-08-08T13:29:04;24.68;60.17
67799;SHT30;54596;43.216;27.904;2023-08-08T13:31:29;24.68;59.46
67799;SHT30;54596;43.216;27.904;2023-08-08T13:33:55;24.62;59.89
67799;SHT30;54596;43.216;27.904;2023-08-08T13:36:20;24.68;60.20
67799;SHT30;54596;43.216;27.904;2023-08-08T13:38:46;24.68;60.00
67799;SHT30;54596;43.216;27.904;2023-08-08T13:41:11;24.73;59.73
67799;SHT30;54596;43.216;27.904;2023-08-08T13:43:37;24.69;59.90
67799;SHT30;54596;43.216;27.904;2023-08-08T13:46:02;24.72;60.07
67799;SHT30;54596;43.216;27.904;2023-08-08T13:48:33;24.79;59.60
67799;SHT30;54596;43.216;27.904;2023-08-08T13:50:58;24.81;59.93
67799;SHT30;54596;43.216;27.904;2023-08-08T13:53:24;24.85;60.41
67799;SHT30;54596;43.216;27.904;2023-08-08T13:55:49;24.92;60.86
67799;SHT30;54596;43.216;27.904;2023-08-08T13:58:14;24.88;60.78
67799;SHT30;54596;43.216;27.904;2023-08-08T14:00:40;24.90;60.46
67799;SHT30;54596;43.216;27.904;2023-08-08T14:03:06;24.90;59.63
67799;SHT30;54596;43.216;27.904;2023-08-08T14:05:31;24.93;59.76
67799;SHT30;54596;43.216;27.904;2023-08-08T14:07:57;25.00;59.26
67799;SHT30;54596;43.216;27.904;2023-08-08T14:10:23;24.98;58.32
67799;SHT30;54596;43.216;27.904;2023-08-08T14:12:50;25.09;58.93
67799;SHT30;54596;43.216;27.904;2023-08-08T14:15:15;25.17;59.50
67799;SHT30;54596;43.216;27.904;2023-08-08T14:17:41;25.22;59.92
67799;SHT30;54596;43.216;27.904;2023-08-08T14:20:07;25.09;60.48
67799;SHT30;54596;43.216;27.904;2023-08-08T14:22:34;25.09;60.60
67799;SHT30;54596;43.216;27.904;2023-08-08T14:24:59;25.05;59.61
67799;SHT30;54596;43.216;27.904;2023-08-08T14:27:25;25.07;58.84
67799;SHT30;54596;43.216;27.904;2023-08-08T14:29:50;25.00;58.73
67799;SHT30;54596;43.216;27.904;2023-08-08T14:32:16;24.98;59.41
67799;SHT30;54596;43.216;27.904;2023-08-08T14:34:42;24.96;59.77
67799;SHT30;54596;43.216;27.904;2023-08-08T14:37:07;24.90;60.48
67799;SHT30;54596;43.216;27.904;2023-08-08T14:39:33;24.88;60.95
67799;SHT30;54596;43.216;27.904;2023-08-08T14:41:58;24.73;60.98
67799;SHT30;54596;43.216;27.904;2023-08-08T14:44:24;24.71;60.94
67799;SHT30;54596;43.216;27.904;2023-08-08T14:46:50;24.71;60.37
67799;SHT30;54596;43.216;27.904;2023-08-08T14:49:16;24.67;60.25
67799;SHT30;54596;43.216;27.904;2023-08-08T14:51:41;24.54;59.64
67799;SHT30;54596;43.216;27.904;2023-08-08T14:54:07;24.55;59.53
67799;SHT30;54596;43.216;27.904;2023-08-08T14:56:32;24.57;58.75
67799;SHT30;54596;43.216;27.904;2023-08-08T14:58:58;24.54;58.58
67799;SHT30;54596;43.216;27.904;2023-08-08T15:01:23;24.53;59.03
67799;SHT30;54596;43.216;27.904;2023-08-08T15:03:50;24.54;59.82
67799;SHT30;54596;43.216;27.904;2023-08-08T15:06:16;24.51;60.01
67799;SHT30;54596;43.216;27.904;2023-08-08T15:08:41;24.53;60.22
67799;SHT30;54596;43.216;27.904;2023-08-08T15:11:07;24.51;60.50
67799;SHT30;54596;43.216;27.904;2023-08-08T15:13:33;24.55;60.44